createdAt,value
2023-03-11T00:00:35.865Z,38.51
2023-03-11T00:04:35.943Z,38.45
2023-03-11T00:08:36.063Z,38.33
2023-03-11T00:12:36.178Z,38.17
2023-03-11T00:16:36.305Z,38.13
2023-03-11T00:20:36.359Z,37.92
2023-03-11T00:24:36.469Z,37.84
2023-03-11T00:28:36.586Z,37.79
2023-03-11T00:32:36.850Z,37.69
2023-03-11T00:36:36.826Z,37.69
2023-03-11T00:40:36.900Z,37.55
2023-03-11T00:44:37.019Z,37.49
2023-03-11T00:48:37.100Z,37.38
2023-03-11T00:52:37.201Z,37.36
2023-03-11T00:56:37.293Z,37.25
2023-03-11T01:00:37.397Z,37.25
2023-03-11T01:04:37.553Z,37.20
2023-03-11T01:08:37.628Z,37.07
2023-03-11T01:12:37.727Z,37.03
2023-03-11T01:16:37.852Z,36.97
2023-03-11T01:20:37.990Z,36.89
2023-03-11T01:24:38.120Z,36.85
2023-03-11T01:28:38.254Z,36.81
2023-03-11T01:32:38.419Z,36.78
2023-03-11T01:36:38.490Z,36.77
2023-03-11T01:40:38.631Z,36.62
2023-03-11T01:44:38.764Z,36.55
2023-03-11T01:48:38.894Z,36.47
2023-03-11T01:52:38.993Z,36.41
2023-03-11T01:56:39.119Z,36.31
2023-03-11T02:00:39.227Z,36.25
2023-03-11T02:04:39.334Z,36.11
2023-03-11T02:08:39.432Z,36.10
2023-03-11T02:14:58.403Z,36.07
2023-03-11T02:18:58.383Z,35.98
2023-03-11T02:22:58.319Z,35.88
2023-03-11T02:26:58.317Z,35.82
2023-03-11T02:30:58.279Z,35.76
2023-03-11T02:34:58.225Z,35.68
2023-03-11T02:38:58.172Z,35.65
2023-03-11T02:42:58.156Z,35.59
2023-03-11T02:46:58.197Z,35.50
2023-03-11T02:50:58.082Z,35.43
2023-03-11T02:54:58.038Z,35.40
2023-03-11T02:58:57.983Z,35.33
2023-03-11T03:02:57.994Z,35.39
2023-03-11T03:06:57.918Z,35.28
2023-03-11T03:10:58.522Z,35.24
2023-03-11T03:14:58.244Z,35.13
2023-03-11T03:18:58.388Z,35.14
2023-03-11T03:22:58.577Z,35.14
2023-03-11T03:26:58.702Z,35.10
2023-03-11T03:30:58.864Z,35.00
2023-03-11T03:34:59.042Z,35.00
2023-03-11T03:38:59.169Z,34.93
2023-03-11T03:42:59.313Z,34.84
2023-03-11T03:46:59.523Z,34.87
2023-03-11T03:50:59.650Z,34.85
2023-03-11T03:54:59.825Z,34.70
2023-03-11T03:58:59.967Z,34.70
2023-03-11T04:03:00.209Z,34.62
2023-03-11T04:07:00.294Z,34.62
2023-03-11T04:11:00.478Z,34.51
2023-03-11T04:15:00.642Z,34.43
2023-03-11T04:19:00.798Z,34.36
2023-03-11T04:23:00.989Z,34.32
2023-03-11T04:27:01.181Z,34.36
2023-03-11T04:31:01.544Z,34.25
2023-03-11T04:35:01.539Z,34.15
2023-03-11T04:39:01.714Z,34.13
2023-03-11T04:43:01.883Z,34.13
2023-03-11T04:47:02.124Z,34.05
2023-03-11T04:51:02.253Z,33.99
2023-03-11T04:55:02.433Z,33.98
2023-03-11T04:59:02.595Z,33.92
2023-03-11T05:03:02.807Z,33.82
2023-03-11T05:07:02.976Z,33.78
2023-03-11T05:11:03.189Z,33.75
2023-03-11T05:15:03.379Z,33.63
2023-03-11T05:19:03.593Z,33.66
2023-03-11T05:23:03.747Z,33.56
2023-03-11T05:27:03.960Z,33.56
2023-03-11T05:31:04.166Z,33.48
2023-03-11T05:35:04.333Z,33.46
2023-03-11T05:39:04.547Z,33.29
2023-03-11T05:43:04.750Z,33.26
2023-03-11T05:47:04.974Z,33.23
2023-03-11T05:51:05.115Z,33.18
2023-03-11T05:55:05.312Z,33.11
2023-03-11T05:59:05.517Z,33.06
2023-03-11T06:03:05.720Z,33.00
2023-03-11T06:07:05.933Z,32.98
2023-03-11T06:11:06.163Z,32.91
2023-03-11T06:15:06.339Z,32.81
2023-03-11T06:19:06.581Z,32.80
2023-03-11T06:23:06.730Z,32.74
2023-03-11T06:27:06.895Z,32.64
2023-03-11T06:31:07.155Z,32.59
2023-03-11T06:35:07.311Z,32.48
2023-03-11T06:39:07.552Z,32.49
2023-03-11T06:43:07.726Z,32.46
2023-03-11T06:47:07.973Z,32.35
2023-03-11T06:51:08.166Z,32.29
2023-03-11T06:55:08.346Z,32.30
2023-03-11T06:59:08.553Z,32.24
2023-03-11T07:03:08.785Z,32.17
2023-03-11T07:07:09.005Z,32.14
2023-03-11T07:11:09.150Z,32.09
2023-03-11T07:15:09.400Z,32.01
2023-03-11T07:19:09.601Z,31.98
2023-03-11T07:23:09.817Z,31.90
2023-03-11T07:27:10.011Z,31.85
2023-03-11T07:31:10.238Z,31.72
2023-03-11T07:35:10.440Z,31.66
2023-03-11T07:39:10.626Z,31.58
2023-03-11T07:43:10.833Z,31.60
2023-03-11T07:47:11.030Z,31.54
2023-03-11T07:51:11.231Z,31.45
2023-03-11T07:55:11.429Z,31.36
2023-03-11T07:59:11.614Z,31.29
2023-03-11T08:03:11.847Z,31.27
2023-03-11T08:07:11.979Z,31.16
2023-03-11T08:11:12.188Z,31.14
2023-03-11T08:15:12.386Z,31.09
2023-03-11T08:19:12.586Z,31.07
2023-03-11T08:23:12.741Z,30.93
2023-03-11T08:27:12.895Z,30.93
2023-03-11T08:31:13.227Z,30.81
2023-03-11T08:35:13.243Z,30.67
2023-03-11T08:39:13.493Z,30.58
2023-03-11T08:43:13.509Z,30.10
2023-03-11T08:47:13.620Z,29.86
2023-03-11T08:51:13.709Z,29.91
2023-03-11T08:55:13.758Z,29.90
2023-03-11T08:59:13.832Z,29.97
2023-03-11T09:03:13.866Z,29.77
2023-03-11T09:07:13.876Z,29.72
2023-03-11T09:11:13.917Z,29.88
2023-03-11T09:15:13.948Z,30.03
2023-03-11T09:19:13.964Z,29.90
2023-03-11T09:23:14.036Z,30.00
2023-03-11T09:27:14.053Z,29.83
2023-03-11T09:31:14.127Z,29.59
2023-03-11T09:35:14.057Z,29.36
2023-03-11T09:39:14.054Z,29.39
2023-03-11T09:43:14.069Z,29.21
2023-03-11T09:47:14.125Z,29.06
2023-03-11T09:51:14.168Z,29.19
2023-03-11T09:55:14.154Z,29.13
2023-03-11T09:59:14.171Z,29.17
2023-03-11T10:03:14.306Z,29.14
2023-03-11T10:07:14.398Z,28.93
2023-03-11T10:11:14.341Z,28.72
2023-03-11T10:15:14.325Z,28.42
2023-03-11T10:19:14.282Z,28.24
2023-03-11T10:23:14.255Z,28.16
2023-03-11T10:27:14.197Z,28.06
2023-03-11T10:31:14.198Z,27.97
2023-03-11T10:35:14.149Z,28.07
2023-03-11T10:39:14.118Z,28.00
2023-03-11T10:43:14.061Z,28.02
2023-03-11T10:47:14.026Z,28.11
2023-03-11T10:51:13.985Z,28.07
2023-03-11T10:55:13.932Z,28.08
2023-03-11T10:59:13.976Z,27.95
2023-03-11T11:03:13.966Z,27.97
2023-03-11T11:07:13.814Z,27.90
2023-03-11T11:11:13.799Z,27.95
2023-03-11T11:15:13.761Z,27.93
2023-03-11T11:19:13.745Z,27.89
2023-03-11T11:23:13.701Z,27.89
2023-03-11T11:27:13.648Z,27.84
2023-03-11T11:31:13.749Z,27.82
2023-03-11T11:35:13.734Z,27.85
2023-03-11T11:39:13.819Z,27.81
2023-03-11T11:43:13.802Z,27.91
2023-03-11T11:47:13.829Z,27.95
2023-03-11T11:51:13.902Z,27.96
2023-03-11T11:55:13.979Z,27.97
2023-03-11T11:59:14.081Z,27.96
2023-03-11T12:03:14.270Z,27.99
2023-03-11T12:07:14.409Z,28.02
2023-03-11T12:11:14.544Z,28.03
2023-03-11T12:15:14.682Z,28.09
2023-03-11T12:19:14.855Z,28.06
2023-03-11T12:23:15.049Z,28.08
2023-03-11T12:27:15.256Z,28.02
2023-03-11T12:31:15.257Z,28.03
2023-03-11T12:35:15.191Z,28.05
2023-03-11T12:39:15.196Z,28.02
2023-03-11T12:43:15.125Z,28.09
2023-03-11T12:47:15.081Z,28.08
2023-03-11T12:51:15.034Z,28.09
2023-03-11T12:55:14.996Z,28.15
2023-03-11T12:59:14.956Z,28.17
2023-03-11T13:03:14.953Z,28.20
2023-03-11T13:07:15.085Z,28.18
2023-03-11T13:11:15.058Z,28.17
2023-03-11T13:15:15.007Z,28.16
2023-03-11T13:19:14.980Z,28.18
2023-03-11T13:23:14.932Z,28.18
2023-03-11T13:27:14.881Z,28.23
2023-03-11T13:31:14.937Z,28.20
2023-03-11T13:35:14.803Z,28.24
2023-03-11T13:39:14.805Z,28.22
2023-03-11T13:43:14.768Z,28.25
2023-03-11T13:47:14.893Z,28.28
2023-03-11T13:51:14.820Z,28.28
2023-03-11T13:55:14.769Z,28.29
2023-03-11T13:59:14.727Z,28.30
2023-03-11T14:03:14.725Z,28.32
2023-03-11T14:07:14.670Z,28.36
2023-03-11T14:11:14.682Z,28.39
2023-03-11T14:15:14.638Z,28.45
2023-03-11T14:19:14.554Z,28.45
2023-03-11T14:23:14.509Z,28.47
2023-03-11T14:27:14.487Z,28.59
2023-03-11T14:31:14.474Z,28.58
2023-03-11T14:35:14.403Z,28.61
2023-03-11T14:39:14.366Z,28.62
2023-03-11T14:43:14.337Z,28.71
2023-03-11T14:47:14.340Z,28.72
2023-03-11T14:51:14.291Z,28.76
2023-03-11T14:55:14.204Z,28.79
2023-03-11T14:59:14.189Z,28.83
2023-03-11T15:03:14.240Z,28.78
2023-03-11T15:07:14.117Z,28.85
2023-03-11T15:11:14.069Z,28.88
2023-03-11T15:15:14.065Z,28.90
2023-03-11T15:19:14.073Z,28.89
2023-03-11T15:23:14.136Z,28.91
2023-03-11T15:27:14.202Z,28.94
2023-03-11T15:31:14.329Z,28.92
2023-03-11T15:35:14.251Z,28.99
2023-03-11T15:39:14.336Z,28.95
2023-03-11T15:43:14.343Z,28.97
2023-03-11T15:47:14.399Z,28.96
2023-03-11T15:51:14.459Z,28.97
2023-03-11T15:55:14.530Z,28.95
2023-03-11T15:59:14.616Z,28.92
2023-03-11T16:03:14.689Z,28.86
2023-03-11T16:07:14.734Z,28.86
2023-03-11T16:11:14.849Z,28.90
2023-03-11T16:15:14.913Z,28.87
2023-03-11T16:19:15.023Z,28.83
2023-03-11T16:23:15.130Z,28.68
2023-03-11T16:27:15.239Z,28.82
2023-03-11T16:31:15.431Z,28.74
2023-03-11T16:35:15.495Z,28.76
2023-03-11T16:39:15.683Z,28.73
2023-03-11T16:43:15.837Z,28.69
2023-03-11T16:47:16.003Z,28.67
2023-03-11T16:51:16.142Z,28.57
2023-03-11T16:55:16.312Z,28.64
2023-03-11T16:59:16.504Z,28.61
2023-03-11T17:03:18.218Z,28.52
2023-03-11T17:07:16.638Z,28.36
2023-03-11T17:11:16.609Z,28.41
2023-03-11T17:15:16.546Z,28.20
2023-03-11T17:19:16.803Z,28.34
2023-03-11T17:23:16.558Z,28.24
2023-03-11T17:27:16.768Z,28.16
2023-03-11T17:31:16.886Z,28.04
2023-03-11T17:35:16.699Z,27.91
2023-03-11T17:39:16.687Z,27.91
2023-03-11T17:43:16.613Z,27.88
2023-03-11T17:47:16.597Z,27.83
2023-03-11T17:51:16.580Z,27.70
2023-03-11T17:55:16.518Z,27.80
2023-03-11T17:59:17.944Z,27.77
2023-03-11T18:03:16.475Z,27.76
2023-03-11T18:07:16.703Z,27.72
2023-03-11T18:11:18.874Z,27.69
2023-03-11T18:15:16.898Z,27.76
2023-03-11T18:19:16.854Z,27.66
2023-03-11T18:23:16.844Z,27.66
2023-03-11T18:27:16.778Z,27.56
2023-03-11T18:31:16.766Z,27.64
2023-03-11T18:35:16.704Z,27.53
2023-03-11T18:39:16.696Z,27.54
2023-03-11T18:43:16.627Z,27.50
2023-03-11T18:47:16.590Z,27.45
2023-03-11T18:51:16.579Z,27.37
2023-03-11T18:55:16.557Z,27.33
2023-03-11T18:59:16.479Z,27.25
2023-03-11T19:03:16.447Z,27.19
2023-03-11T19:07:16.433Z,27.22
2023-03-11T19:11:16.408Z,27.17
2023-03-11T19:15:16.347Z,27.14
2023-03-11T19:19:16.304Z,27.10
2023-03-11T19:23:16.282Z,27.02
2023-03-11T19:27:16.258Z,27.01
2023-03-11T19:31:16.250Z,26.95
2023-03-11T19:35:16.176Z,26.98
2023-03-11T19:39:16.129Z,26.96
2023-03-11T19:43:16.086Z,26.96
2023-03-11T19:47:16.071Z,26.92
2023-03-11T19:51:16.016Z,26.95
2023-03-11T19:55:15.988Z,26.90
2023-03-11T19:59:15.919Z,26.89
2023-03-11T20:03:15.921Z,26.92
2023-03-11T20:07:15.876Z,26.87
2023-03-11T20:11:15.897Z,26.91
2023-03-11T20:15:15.814Z,26.91
2023-03-11T20:19:15.800Z,26.90
2023-03-11T20:23:15.773Z,26.85
2023-03-11T20:27:15.685Z,26.91
2023-03-11T20:31:15.741Z,26.91
2023-03-11T20:35:15.608Z,26.88
2023-03-11T20:39:15.544Z,26.91
2023-03-11T20:43:15.557Z,26.95
2023-03-11T20:47:15.560Z,26.89
2023-03-11T20:51:15.551Z,26.95
2023-03-11T20:55:15.533Z,26.91
2023-03-11T20:59:15.628Z,26.93
2023-03-11T21:03:15.634Z,27.02
2023-03-11T21:07:15.656Z,26.93
2023-03-11T21:11:15.638Z,26.93
2023-03-11T21:15:15.705Z,26.91
2023-03-11T21:19:15.773Z,26.97
2023-03-11T21:23:15.849Z,26.96
2023-03-11T21:27:15.841Z,26.96
2023-03-11T21:31:15.908Z,26.96
2023-03-11T21:35:16.005Z,26.93
2023-03-11T21:39:15.856Z,26.94
2023-03-11T21:43:16.043Z,26.93
2023-03-11T21:47:16.103Z,26.94
2023-03-11T21:51:15.974Z,26.99
2023-03-11T21:55:16.066Z,26.97
2023-03-11T21:59:16.107Z,26.98
2023-03-11T22:03:16.267Z,26.95
2023-03-11T22:07:16.659Z,26.92
2023-03-11T22:11:16.279Z,27.00
2023-03-11T22:15:16.316Z,26.97
2023-03-11T22:19:16.255Z,26.96
2023-03-11T22:23:16.339Z,26.92
2023-03-11T22:27:16.405Z,26.96
2023-03-11T22:31:16.510Z,26.96
2023-03-11T22:35:16.556Z,26.93
2023-03-11T22:39:16.644Z,26.95
2023-03-11T22:43:16.743Z,26.93
2023-03-11T22:47:16.841Z,26.96
2023-03-11T22:51:16.936Z,26.95
2023-03-11T22:55:17.042Z,26.98
2023-03-11T22:59:17.132Z,26.92
2023-03-11T23:03:17.314Z,26.93
2023-03-11T23:07:17.372Z,26.92
2023-03-11T23:11:17.456Z,26.96
2023-03-11T23:15:17.592Z,26.96
2023-03-11T23:19:17.707Z,26.96
2023-03-11T23:23:17.851Z,26.96
2023-03-11T23:27:17.943Z,26.93
2023-03-11T23:31:18.094Z,26.91
2023-03-11T23:35:18.155Z,26.96
2023-03-11T23:39:18.333Z,26.94
2023-03-11T23:43:18.458Z,26.94
2023-03-11T23:47:18.674Z,26.99
2023-03-11T23:51:18.709Z,26.88
2023-03-11T23:55:18.864Z,26.97
2023-03-11T23:59:18.976Z,26.94
